METAR Data
IDs: Format: Raw Decoded Include TAF

Data at: 0339 UTC 19 Oct 2021

KM19 190256Z AUTO 16006KT 10SM CLR 12/08 A3014 RMK AO2 SLP206 T01170078 51008
KM19 190156Z AUTO 15005KT 10SM CLR 12/08 A3013 RMK AO2 SLP203 T01170078
KM19 190056Z AUTO 18005KT 10SM CLR 14/08 A3013 RMK AO2 SLP201 T01390083
KM19 182356Z AUTO 15008KT 10SM CLR 14/08 A3012 RMK AO2 SLP198 T01390083 10222 20139 56008
KM19 182256Z AUTO 14006KT 10SM CLR 19/07 A3012 RMK AO2 SLP199 T01890072
KM19 182156Z AUTO 16007KT 10SM CLR 22/05 A3013 RMK AO2 SLP200 T02170050
KM19 182056Z AUTO 16007KT 10SM CLR 22/04 A3014 RMK AO2 SLP205 T02220044 56023
KM19 181956Z AUTO VRB06KT 10SM CLR 22/06 A3015 RMK AO2 SLP208 T02170056
KM19 181856Z AUTO 20005KT 10SM CLR 22/05 A3018 RMK AO2 SLP217 T02170050
KM19 181756Z AUTO 17005KT 10SM CLR 21/06 A3021 RMK AO2 SLP229 T02110056 10211 20067 58017
KM19 181656Z AUTO 16007KT 130V200 10SM CLR 21/07 A3023 RMK AO2 SLP236 T02060067
KM19 181556Z AUTO 20008KT 10SM CLR 18/07 A3025 RMK AO2 SLP243 T01830072
KM19 181456Z AUTO 00000KT 10SM CLR 15/09 A3026 RMK AO2 SLP245 T01500089 53013
KM19 181356Z AUTO 00000KT 10SM CLR 11/09 A3025 RMK AO2 SLP243 T01110094
KM19 181256Z AUTO 00000KT 10SM CLR 07/07 A3023 RMK AO2 SLP236 T00720072
KM19 181156Z AUTO 00000KT 10SM CLR 07/07 A3022 RMK AO2 SLP233 60000 T00720067 10100 20067 51011
KM19 181056Z AUTO 00000KT 10SM CLR 07/06 A3021 RMK AO2 SLP230 T00670061
KM19 180956Z AUTO 25003KT 10SM CLR 08/07 A3020 RMK AO2 SLP225 T00830067
KM19 180856Z AUTO 00000KT 10SM CLR 08/07 A3019 RMK AO2 SLP221 60000 T00830072 58008
KM19 180756Z AUTO 00000KT 10SM CLR 09/07 A3020 RMK AO2 SLP224 T00890067
KM19 180656Z AUTO 19004KT 10SM CLR 09/07 A3021 RMK AO2 RAE26 SLP229 P0000 T00940067
KM19 180618Z AUTO 00000KT 6SM -RA BR CLR 09/07 A3021 RMK AO2 P0000
KM19 180607Z AUTO 17003KT 2 1/2SM -RA BR CLR 09/07 A3021 RMK AO2 P0000
KM19 180556Z AUTO 17004KT 1 1/4SM -RA BR CLR 09/07 A3022 RMK AO2 RAB30 SLP229 P0000 60000 T00940072 10161 20089 402170050 58005
KM19 180535Z AUTO 17004KT 1 3/4SM -RA CLR 10/07 A3022 RMK AO2 RAB30 P0000
KM19 180456Z AUTO 17004KT 10SM CLR 09/08 A3022 RMK AO2 SLP233 T00940078
KM19 180356Z AUTO 22005KT 10SM CLR 11/07 A3023 RMK AO2 SLP236 T01110067
KM19 180256Z AUTO 20003KT 10SM CLR 13/07 A3023 RMK AO2 SLP235 T01330067 51005
KM19 180156Z AUTO 16003KT 10SM CLR 13/08 A3022 RMK AO2 SLP233 T01280078
KM19 180056Z AUTO 16006KT 10SM CLR 14/07 A3022 RMK AO2 SLP233 T01390072
KM19 172356Z AUTO 13005KT 10SM CLR 16/09 A3021 RMK AO2 SLP230 T01610089 10217 20150 55006
KM19 172256Z AUTO 16005KT 10SM CLR 19/05 A3021 RMK AO2 SLP229 T01940050
KM19 172156Z AUTO VRB03KT 9SM CLR 22/03 A3022 RMK AO2 SLP231 T02170033
KM19 172056Z AUTO 23005KT 10SM CLR 21/03 A3023 RMK AO2 SLP234 T02110028 56023
KM19 171956Z AUTO 25004KT 10SM CLR 21/03 A3024 RMK AO2 SLP239 T02110028
KM19 171856Z AUTO 00000KT 10SM CLR 21/02 A3027 RMK AO2 SLP247 T02060022
KM19 171756Z AUTO 30005KT 10SM CLR 19/03 A3030 RMK AO2 SLP259 T01940033 10194 20050 58013
KM19 171656Z AUTO 00000KT 10SM CLR 18/02 A3032 RMK AO2 SLP266 T01830022
KM19 171556Z AUTO 30003KT 10SM CLR 17/07 A3034 RMK AO2 SLP271 T01670067